OAL114 LGAV-LIRA
Flight info
| Callsign | OAL114 |
|---|---|
| Flight time | 1h 43m |
| Altitude | 32000 |
| Route | KOR UL53 KRK UL995 TIGRA MATED TEA ALAXI |
| Aircraft | B737/M-VGDW/C |
Departure
| Time | 2026-05-07 08:03 |
|---|---|
| Airport | Athens Eleftherios Venizelos International Airport (LGAV) |
Arrival
| Time | 2026-05-07 09:47 |
|---|---|
| Airport | Ciampino–G. B. Pastine International Airport (LIRA) |
| Time | Latitude | Longitude | Altitude | Speed | Heading |
|---|---|---|---|---|---|
| 2026-05-07 07:48 | 37.93835 | 23.95062 | 300 ft | 0 kts | 308° |
| 2026-05-07 07:51 | 37.93833 | 23.95065 | 300 ft | 2 kts | 307° |
| 2026-05-07 07:52 | 37.93823 | 23.95082 | 300 ft | 2 kts | 307° |
| 2026-05-07 07:52 | 37.93813 | 23.95099 | 302 ft | 2 kts | 307° |
| 2026-05-07 07:52 | 37.93802 | 23.95115 | 299 ft | 2 kts | 315° |
| 2026-05-07 07:52 | 37.93789 | 23.95126 | 300 ft | 2 kts | 348° |
| 2026-05-07 07:53 | 37.93773 | 23.95125 | 302 ft | 2 kts | 39° |
| 2026-05-07 07:53 | 37.93767 | 23.95119 | 299 ft | 0 kts | 37° |
| 2026-05-07 07:56 | 37.93775 | 23.95127 | 301 ft | 3 kts | 37° |
| 2026-05-07 07:56 | 37.93802 | 23.95153 | 299 ft | 7 kts | 37° |
| 2026-05-07 07:56 | 37.93846 | 23.95197 | 302 ft | 10 kts | 44° |
| 2026-05-07 07:56 | 37.93877 | 23.95285 | 300 ft | 13 kts | 71° |
| 2026-05-07 07:57 | 37.93865 | 23.95393 | 301 ft | 14 kts | 123° |
| 2026-05-07 07:57 | 37.93880 | 23.95500 | 297 ft | 14 kts | 40° |
| 2026-05-07 07:57 | 37.93955 | 23.95572 | 297 ft | 13 kts | 37° |
| 2026-05-07 07:57 | 37.94027 | 23.95640 | 297 ft | 13 kts | 37° |
| 2026-05-07 07:58 | 37.94098 | 23.95706 | 298 ft | 12 kts | 36° |
| 2026-05-07 07:58 | 37.94167 | 23.95771 | 299 ft | 12 kts | 37° |
| 2026-05-07 07:58 | 37.94240 | 23.95842 | 298 ft | 14 kts | 37° |
| 2026-05-07 07:58 | 37.94321 | 23.95918 | 298 ft | 15 kts | 36° |
| 2026-05-07 07:59 | 37.94407 | 23.95999 | 298 ft | 16 kts | 37° |
| 2026-05-07 07:59 | 37.94498 | 23.96085 | 298 ft | 17 kts | 37° |
| 2026-05-07 07:59 | 37.94592 | 23.96174 | 299 ft | 17 kts | 36° |
| 2026-05-07 07:59 | 37.94682 | 23.96260 | 298 ft | 16 kts | 37° |
| 2026-05-07 08:00 | 37.94769 | 23.96344 | 299 ft | 15 kts | 37° |
| 2026-05-07 08:00 | 37.94852 | 23.96423 | 301 ft | 15 kts | 37° |
| 2026-05-07 08:00 | 37.94933 | 23.96499 | 300 ft | 14 kts | 37° |
| 2026-05-07 08:00 | 37.95010 | 23.96571 | 302 ft | 13 kts | 37° |
| 2026-05-07 08:01 | 37.95083 | 23.96641 | 301 ft | 13 kts | 37° |
| 2026-05-07 08:01 | 37.95153 | 23.96709 | 304 ft | 13 kts | 37° |
| 2026-05-07 08:01 | 37.95222 | 23.96775 | 302 ft | 12 kts | 37° |
| 2026-05-07 08:01 | 37.95287 | 23.96842 | 302 ft | 12 kts | 52° |
| 2026-05-07 08:02 | 37.95273 | 23.96936 | 305 ft | 12 kts | 126° |
| 2026-05-07 08:02 | 37.95223 | 23.97014 | 310 ft | 11 kts | 147° |
| 2026-05-07 08:02 | 37.95159 | 23.96992 | 308 ft | 8 kts | 217° |
| 2026-05-07 08:02 | 37.95111 | 23.96946 | 308 ft | 13 kts | 217° |
| 2026-05-07 08:03 | 37.94936 | 23.96780 | 305 ft | 64 kts | 217° |
| 2026-05-07 08:03 | 37.94362 | 23.96233 | 286 ft | 139 kts | 217° |
| 2026-05-07 08:03 | 37.93484 | 23.95394 | 685 ft | 161 kts | 217° |
| 2026-05-07 08:03 | 37.92620 | 23.94557 | 1681 ft | 153 kts | 216° |
| 2026-05-07 08:04 | 37.91698 | 23.93835 | 2341 ft | 164 kts | 197° |
| 2026-05-07 08:04 | 37.90543 | 23.93250 | 2672 ft | 195 kts | 209° |
| 2026-05-07 08:04 | 37.89723 | 23.92652 | 2857 ft | 216 kts | 209° |
| 2026-05-07 08:04 | 37.88342 | 23.91690 | 3325 ft | 233 kts | 208° |
| 2026-05-07 08:05 | 37.86885 | 23.90700 | 3961 ft | 242 kts | 208° |
| 2026-05-07 08:05 | 37.84893 | 23.89351 | 5208 ft | 245 kts | 207° |
| 2026-05-07 08:05 | 37.83380 | 23.88335 | 6172 ft | 249 kts | 207° |
| 2026-05-07 08:05 | 37.81836 | 23.87299 | 7031 ft | 254 kts | 208° |
| 2026-05-07 08:06 | 37.80776 | 23.86587 | 7612 ft | 257 kts | 208° |
| 2026-05-07 08:06 | 37.79180 | 23.85517 | 8470 ft | 262 kts | 208° |
| 2026-05-07 08:06 | 37.77552 | 23.84426 | 9293 ft | 268 kts | 209° |
| 2026-05-07 08:06 | 37.75886 | 23.83312 | 10092 ft | 273 kts | 209° |
| 2026-05-07 08:07 | 37.74211 | 23.82192 | 10839 ft | 277 kts | 209° |
| 2026-05-07 08:07 | 37.72500 | 23.81051 | 11644 ft | 279 kts | 210° |
| 2026-05-07 08:07 | 37.70770 | 23.79898 | 12437 ft | 283 kts | 210° |
| 2026-05-07 08:07 | 37.69016 | 23.78730 | 13237 ft | 287 kts | 211° |
| 2026-05-07 08:08 | 37.67238 | 23.77545 | 14032 ft | 290 kts | 211° |
| 2026-05-07 08:08 | 37.65443 | 23.76351 | 14786 ft | 293 kts | 211° |
| 2026-05-07 08:08 | 37.63630 | 23.75144 | 15580 ft | 295 kts | 211° |
| 2026-05-07 08:08 | 37.61832 | 23.73949 | 16362 ft | 297 kts | 211° |
| 2026-05-07 08:09 | 37.59990 | 23.72724 | 17142 ft | 300 kts | 211° |
| 2026-05-07 08:09 | 37.58129 | 23.71489 | 17924 ft | 303 kts | 211° |
| 2026-05-07 08:09 | 37.56387 | 23.69951 | 18379 ft | 314 kts | 231° |
| 2026-05-07 08:09 | 37.55279 | 23.67522 | 18547 ft | 331 kts | 254° |
| 2026-05-07 08:10 | 37.54717 | 23.64629 | 18707 ft | 351 kts | 259° |
| 2026-05-07 08:10 | 37.54228 | 23.61517 | 18847 ft | 372 kts | 260° |
| 2026-05-07 08:10 | 37.53735 | 23.58247 | 19132 ft | 385 kts | 260° |
| 2026-05-07 08:10 | 37.53219 | 23.54890 | 19582 ft | 393 kts | 259° |
| 2026-05-07 08:11 | 37.52684 | 23.51506 | 20196 ft | 396 kts | 259° |
| 2026-05-07 08:11 | 37.52133 | 23.48094 | 20844 ft | 398 kts | 259° |
| 2026-05-07 08:11 | 37.51571 | 23.44662 | 21467 ft | 401 kts | 259° |
| 2026-05-07 08:11 | 37.51000 | 23.41200 | 22044 ft | 405 kts | 259° |
| 2026-05-07 08:12 | 37.50421 | 23.37699 | 22601 ft | 409 kts | 259° |
| 2026-05-07 08:12 | 37.49845 | 23.34216 | 23156 ft | 412 kts | 259° |
| 2026-05-07 08:12 | 37.49262 | 23.30667 | 23700 ft | 415 kts | 261° |
| 2026-05-07 08:12 | 37.49172 | 23.27037 | 24123 ft | 418 kts | 278° |
| 2026-05-07 08:13 | 37.49988 | 23.23529 | 24664 ft | 419 kts | 294° |
| 2026-05-07 08:13 | 37.51566 | 23.20433 | 25202 ft | 423 kts | 309° |
| 2026-05-07 08:13 | 37.53756 | 23.17942 | 25652 ft | 430 kts | 325° |
| 2026-05-07 08:13 | 37.56407 | 23.16137 | 26113 ft | 434 kts | 331° |
| 2026-05-07 08:14 | 37.59140 | 23.14477 | 26529 ft | 438 kts | 332° |
| 2026-05-07 08:14 | 37.61912 | 23.12832 | 26916 ft | 441 kts | 332° |
| 2026-05-07 08:14 | 37.64698 | 23.11170 | 27327 ft | 444 kts | 331° |
| 2026-05-07 08:14 | 37.67488 | 23.09480 | 27725 ft | 446 kts | 331° |
| 2026-05-07 08:15 | 37.70279 | 23.07767 | 28201 ft | 446 kts | 330° |
| 2026-05-07 08:15 | 37.73058 | 23.06047 | 28832 ft | 443 kts | 330° |
| 2026-05-07 08:15 | 37.75811 | 23.04335 | 29489 ft | 439 kts | 330° |
| 2026-05-07 08:15 | 37.78506 | 23.02655 | 30111 ft | 437 kts | 330° |
| 2026-05-07 08:16 | 37.81229 | 23.00956 | 30619 ft | 435 kts | 329° |
| 2026-05-07 08:16 | 37.83938 | 22.99265 | 31129 ft | 433 kts | 329° |
| 2026-05-07 08:16 | 37.86628 | 22.97586 | 31714 ft | 429 kts | 329° |
| 2026-05-07 08:16 | 37.89298 | 22.95919 | 32134 ft | 428 kts | 329° |
| 2026-05-07 08:17 | 37.91928 | 22.94140 | 32107 ft | 426 kts | 321° |
| 2026-05-07 08:17 | 37.94129 | 22.91692 | 32116 ft | 417 kts | 307° |
| 2026-05-07 08:17 | 37.95835 | 22.88755 | 32144 ft | 413 kts | 302° |
| 2026-05-07 08:18 | 37.99053 | 22.82723 | 32133 ft | 413 kts | 301° |
| 2026-05-07 08:18 | 38.02290 | 22.76739 | 32127 ft | 414 kts | 302° |
| 2026-05-07 08:19 | 38.05584 | 22.70741 | 32130 ft | 414 kts | 302° |
| 2026-05-07 08:19 | 38.08882 | 22.64733 | 32130 ft | 414 kts | 302° |
| 2026-05-07 08:20 | 38.12176 | 22.58719 | 32126 ft | 414 kts | 302° |
| 2026-05-07 08:20 | 38.15465 | 22.52702 | 32125 ft | 414 kts | 302° |
| 2026-05-07 08:21 | 38.18750 | 22.46682 | 32128 ft | 414 kts | 302° |
| 2026-05-07 08:21 | 38.22009 | 22.40696 | 32129 ft | 414 kts | 302° |
| 2026-05-07 08:22 | 38.25290 | 22.34660 | 32129 ft | 414 kts | 302° |
| 2026-05-07 08:22 | 38.28543 | 22.28663 | 32132 ft | 414 kts | 302° |
| 2026-05-07 08:23 | 38.31835 | 22.22586 | 32132 ft | 414 kts | 302° |
| 2026-05-07 08:23 | 38.35088 | 22.16573 | 32139 ft | 415 kts | 302° |
| 2026-05-07 08:24 | 38.38366 | 22.10505 | 32128 ft | 416 kts | 301° |
| 2026-05-07 08:24 | 38.41640 | 22.04431 | 32136 ft | 416 kts | 301° |
| 2026-05-07 08:25 | 38.44919 | 21.98338 | 32132 ft | 416 kts | 301° |
| 2026-05-07 08:25 | 38.48191 | 21.92246 | 32130 ft | 415 kts | 301° |
| 2026-05-07 08:26 | 38.53060 | 21.83159 | 32158 ft | 414 kts | 301° |
| 2026-05-07 08:26 | 38.56310 | 21.77065 | 32140 ft | 416 kts | 301° |
| 2026-05-07 08:27 | 38.59571 | 21.70936 | 32140 ft | 417 kts | 301° |
| 2026-05-07 08:27 | 38.62841 | 21.64781 | 32139 ft | 419 kts | 301° |
| 2026-05-07 08:28 | 38.66115 | 21.58606 | 32130 ft | 418 kts | 301° |
| 2026-05-07 08:28 | 38.69375 | 21.52447 | 32148 ft | 418 kts | 301° |
| 2026-05-07 08:29 | 38.72617 | 21.46309 | 32142 ft | 418 kts | 301° |
| 2026-05-07 08:29 | 38.75872 | 21.40125 | 32134 ft | 419 kts | 301° |
| 2026-05-07 08:30 | 38.79129 | 21.33926 | 32134 ft | 419 kts | 301° |
| 2026-05-07 08:30 | 38.82382 | 21.27721 | 32137 ft | 419 kts | 301° |
| 2026-05-07 08:31 | 38.85628 | 21.21518 | 32131 ft | 419 kts | 301° |
| 2026-05-07 08:31 | 38.88876 | 21.15300 | 32133 ft | 419 kts | 301° |
| 2026-05-07 08:32 | 38.92113 | 21.09090 | 32130 ft | 418 kts | 301° |
| 2026-05-07 08:32 | 38.95328 | 21.02911 | 32130 ft | 418 kts | 301° |
| 2026-05-07 08:33 | 38.98558 | 20.96694 | 32133 ft | 419 kts | 301° |
| 2026-05-07 08:33 | 39.01794 | 20.90453 | 32131 ft | 419 kts | 301° |
| 2026-05-07 08:34 | 39.05033 | 20.84197 | 32136 ft | 420 kts | 301° |
| 2026-05-07 08:34 | 39.08274 | 20.77926 | 32129 ft | 421 kts | 301° |
| 2026-05-07 08:35 | 39.11510 | 20.71650 | 32126 ft | 421 kts | 301° |
| 2026-05-07 08:35 | 39.14752 | 20.65350 | 32137 ft | 422 kts | 301° |
| 2026-05-07 08:36 | 39.17973 | 20.59079 | 32141 ft | 422 kts | 300° |
| 2026-05-07 08:36 | 39.21207 | 20.52768 | 32144 ft | 422 kts | 300° |
| 2026-05-07 08:37 | 39.24454 | 20.46423 | 32114 ft | 424 kts | 300° |
| 2026-05-07 08:37 | 39.27691 | 20.40091 | 32113 ft | 422 kts | 300° |
| 2026-05-07 08:38 | 39.30924 | 20.33775 | 32123 ft | 421 kts | 300° |
| 2026-05-07 08:38 | 39.34145 | 20.27470 | 32115 ft | 421 kts | 300° |
| 2026-05-07 08:39 | 39.37369 | 20.21144 | 32111 ft | 421 kts | 300° |
| 2026-05-07 08:39 | 39.40584 | 20.14821 | 32108 ft | 421 kts | 300° |
| 2026-05-07 08:40 | 39.43803 | 20.08482 | 32106 ft | 421 kts | 300° |
| 2026-05-07 08:40 | 39.47178 | 20.02318 | 32104 ft | 423 kts | 304° |
| 2026-05-07 08:41 | 39.50746 | 19.96250 | 32106 ft | 423 kts | 304° |
| 2026-05-07 08:41 | 39.54303 | 19.90187 | 32111 ft | 423 kts | 304° |
| 2026-05-07 08:42 | 39.57838 | 19.84094 | 32106 ft | 423 kts | 303° |
| 2026-05-07 08:42 | 39.61364 | 19.77979 | 32104 ft | 424 kts | 303° |
| 2026-05-07 08:43 | 39.64897 | 19.71834 | 32108 ft | 423 kts | 303° |
| 2026-05-07 08:43 | 39.68419 | 19.65698 | 32102 ft | 423 kts | 303° |
| 2026-05-07 08:44 | 39.71915 | 19.59595 | 32103 ft | 423 kts | 303° |
| 2026-05-07 08:44 | 39.75424 | 19.53458 | 32103 ft | 423 kts | 303° |
| 2026-05-07 08:45 | 39.78931 | 19.47312 | 32110 ft | 423 kts | 303° |
| 2026-05-07 08:45 | 39.82436 | 19.41158 | 32110 ft | 424 kts | 303° |
| 2026-05-07 08:46 | 39.85926 | 19.35018 | 32114 ft | 425 kts | 303° |
| 2026-05-07 08:46 | 39.89442 | 19.28820 | 32106 ft | 425 kts | 303° |
| 2026-05-07 08:47 | 39.92959 | 19.22610 | 32103 ft | 426 kts | 303° |
| 2026-05-07 08:47 | 39.96469 | 19.16397 | 32108 ft | 426 kts | 303° |
| 2026-05-07 08:48 | 39.99991 | 19.10152 | 32113 ft | 426 kts | 303° |
| 2026-05-07 08:48 | 40.03484 | 19.03947 | 32110 ft | 427 kts | 303° |
| 2026-05-07 08:49 | 40.06322 | 18.97228 | 32116 ft | 420 kts | 286° |
| 2026-05-07 08:49 | 40.07896 | 18.89908 | 32114 ft | 419 kts | 282° |
| 2026-05-07 08:50 | 40.09377 | 18.82543 | 32110 ft | 419 kts | 282° |
| 2026-05-07 08:50 | 40.10877 | 18.75175 | 32111 ft | 419 kts | 282° |
| 2026-05-07 08:51 | 40.12389 | 18.67821 | 32113 ft | 418 kts | 282° |
| 2026-05-07 08:51 | 40.13900 | 18.60477 | 32111 ft | 418 kts | 282° |
| 2026-05-07 08:52 | 40.15396 | 18.53191 | 32109 ft | 417 kts | 282° |
| 2026-05-07 08:52 | 40.16896 | 18.45862 | 32107 ft | 417 kts | 282° |
| 2026-05-07 08:53 | 40.18137 | 18.39774 | 32104 ft | 417 kts | 282° |
| 2026-05-07 08:53 | 40.19628 | 18.32437 | 32098 ft | 417 kts | 282° |
| 2026-05-07 08:54 | 40.21116 | 18.25087 | 32107 ft | 418 kts | 282° |
| 2026-05-07 08:54 | 40.22602 | 18.17721 | 32104 ft | 419 kts | 282° |
| 2026-05-07 08:55 | 40.24085 | 18.10340 | 32103 ft | 420 kts | 282° |
| 2026-05-07 08:55 | 40.25562 | 18.02968 | 32105 ft | 422 kts | 282° |
| 2026-05-07 08:56 | 40.27055 | 17.95486 | 32105 ft | 423 kts | 282° |
| 2026-05-07 08:56 | 40.28537 | 17.88033 | 32102 ft | 424 kts | 282° |
| 2026-05-07 08:57 | 40.30013 | 17.80587 | 32102 ft | 424 kts | 281° |
| 2026-05-07 08:57 | 40.31490 | 17.73103 | 32093 ft | 424 kts | 281° |
| 2026-05-07 08:58 | 40.32964 | 17.65610 | 32089 ft | 424 kts | 281° |
| 2026-05-07 08:58 | 40.34425 | 17.58155 | 32080 ft | 424 kts | 281° |
| 2026-05-07 08:59 | 40.35885 | 17.50678 | 32084 ft | 423 kts | 281° |
| 2026-05-07 08:59 | 40.37341 | 17.43188 | 32081 ft | 423 kts | 281° |
| 2026-05-07 09:00 | 40.38789 | 17.35713 | 32077 ft | 423 kts | 281° |
| 2026-05-07 09:00 | 40.40232 | 17.28242 | 32081 ft | 423 kts | 281° |
| 2026-05-07 09:01 | 40.41670 | 17.20760 | 32077 ft | 422 kts | 281° |
| 2026-05-07 09:01 | 40.43101 | 17.13290 | 32076 ft | 422 kts | 281° |
| 2026-05-07 09:02 | 40.44527 | 17.05820 | 32074 ft | 422 kts | 281° |
| 2026-05-07 09:02 | 40.45951 | 16.98333 | 32097 ft | 422 kts | 281° |
| 2026-05-07 09:03 | 40.47366 | 16.90859 | 32116 ft | 421 kts | 281° |
| 2026-05-07 09:03 | 40.48774 | 16.83394 | 32130 ft | 421 kts | 281° |
| 2026-05-07 09:04 | 40.50178 | 16.75925 | 32146 ft | 420 kts | 281° |
| 2026-05-07 09:04 | 40.51565 | 16.68520 | 32149 ft | 420 kts | 281° |
| 2026-05-07 09:05 | 40.52954 | 16.61072 | 32141 ft | 418 kts | 281° |
| 2026-05-07 09:05 | 40.54331 | 16.53659 | 32134 ft | 417 kts | 281° |
| 2026-05-07 09:06 | 40.55702 | 16.46254 | 32116 ft | 415 kts | 281° |
| 2026-05-07 09:06 | 40.57061 | 16.38884 | 32089 ft | 414 kts | 281° |
| 2026-05-07 09:07 | 40.58410 | 16.31538 | 32074 ft | 413 kts | 281° |
| 2026-05-07 09:07 | 40.59744 | 16.24249 | 32057 ft | 412 kts | 281° |
| 2026-05-07 09:08 | 40.61112 | 16.16936 | 32050 ft | 412 kts | 284° |
| 2026-05-07 09:08 | 40.63253 | 16.09900 | 32047 ft | 414 kts | 290° |
| 2026-05-07 09:09 | 40.65556 | 16.02935 | 32057 ft | 414 kts | 290° |
| 2026-05-07 09:09 | 40.67840 | 15.95962 | 32046 ft | 414 kts | 290° |
| 2026-05-07 09:10 | 40.70086 | 15.89020 | 32041 ft | 414 kts | 290° |
| 2026-05-07 09:10 | 40.72334 | 15.82032 | 32044 ft | 414 kts | 290° |
| 2026-05-07 09:11 | 40.74574 | 15.75042 | 32039 ft | 414 kts | 289° |
| 2026-05-07 09:11 | 40.76809 | 15.68049 | 32043 ft | 414 kts | 289° |
| 2026-05-07 09:12 | 40.79042 | 15.61046 | 32030 ft | 414 kts | 290° |
| 2026-05-07 09:12 | 40.81274 | 15.54032 | 32035 ft | 414 kts | 290° |
| 2026-05-07 09:13 | 40.83497 | 15.47025 | 32031 ft | 413 kts | 290° |
| 2026-05-07 09:13 | 40.85695 | 15.40078 | 32027 ft | 412 kts | 290° |
| 2026-05-07 09:14 | 40.87901 | 15.33090 | 32038 ft | 411 kts | 290° |
| 2026-05-07 09:14 | 40.90097 | 15.26115 | 32033 ft | 411 kts | 290° |
| 2026-05-07 09:15 | 40.92291 | 15.19127 | 32033 ft | 411 kts | 290° |
| 2026-05-07 09:15 | 40.94468 | 15.12176 | 32033 ft | 411 kts | 290° |
| 2026-05-07 09:16 | 40.96650 | 15.05193 | 32029 ft | 411 kts | 290° |
| 2026-05-07 09:16 | 40.98827 | 14.98207 | 32035 ft | 411 kts | 290° |
| 2026-05-07 09:17 | 41.01007 | 14.91191 | 32021 ft | 411 kts | 289° |
| 2026-05-07 09:17 | 41.03167 | 14.84226 | 32037 ft | 410 kts | 289° |
| 2026-05-07 09:18 | 41.05329 | 14.77232 | 32036 ft | 409 kts | 289° |
| 2026-05-07 09:18 | 41.07480 | 14.70255 | 32024 ft | 409 kts | 289° |
| 2026-05-07 09:19 | 41.09632 | 14.63260 | 32034 ft | 408 kts | 289° |
| 2026-05-07 09:19 | 41.11769 | 14.56292 | 32028 ft | 408 kts | 289° |
| 2026-05-07 09:20 | 41.13905 | 14.49309 | 32020 ft | 408 kts | 289° |
| 2026-05-07 09:20 | 41.16034 | 14.42335 | 32014 ft | 407 kts | 289° |
| 2026-05-07 09:21 | 41.18141 | 14.35413 | 32018 ft | 406 kts | 289° |
| 2026-05-07 09:21 | 41.20252 | 14.28456 | 32005 ft | 406 kts | 289° |
| 2026-05-07 09:22 | 41.22356 | 14.21506 | 32013 ft | 405 kts | 289° |
| 2026-05-07 09:22 | 41.24454 | 14.14559 | 32011 ft | 405 kts | 289° |
| 2026-05-07 09:23 | 41.25498 | 14.11094 | 31883 ft | 405 kts | 289° |
| 2026-05-07 09:23 | 41.26543 | 14.07621 | 31465 ft | 401 kts | 288° |
| 2026-05-07 09:23 | 41.27576 | 14.04190 | 30965 ft | 397 kts | 288° |
| 2026-05-07 09:23 | 41.28600 | 14.00794 | 30460 ft | 394 kts | 290° |
| 2026-05-07 09:24 | 41.29856 | 13.97550 | 29933 ft | 395 kts | 297° |
| 2026-05-07 09:24 | 41.31440 | 13.94560 | 29359 ft | 396 kts | 306° |
| 2026-05-07 09:24 | 41.33294 | 13.91868 | 28843 ft | 393 kts | 308° |
| 2026-05-07 09:24 | 41.35179 | 13.89239 | 28296 ft | 391 kts | 309° |
| 2026-05-07 09:25 | 41.37050 | 13.86647 | 27793 ft | 387 kts | 309° |
| 2026-05-07 09:25 | 41.38906 | 13.84067 | 27264 ft | 384 kts | 309° |
| 2026-05-07 09:25 | 41.40747 | 13.81492 | 26755 ft | 382 kts | 309° |
| 2026-05-07 09:25 | 41.42543 | 13.78966 | 26258 ft | 379 kts | 308° |
| 2026-05-07 09:26 | 41.44348 | 13.76417 | 25761 ft | 377 kts | 308° |
| 2026-05-07 09:26 | 41.46147 | 13.73869 | 25258 ft | 376 kts | 308° |
| 2026-05-07 09:26 | 41.47933 | 13.71334 | 24758 ft | 374 kts | 308° |
| 2026-05-07 09:26 | 41.49715 | 13.68803 | 24235 ft | 374 kts | 308° |
| 2026-05-07 09:27 | 41.51490 | 13.66278 | 23727 ft | 373 kts | 308° |
| 2026-05-07 09:27 | 41.53266 | 13.63750 | 23144 ft | 373 kts | 308° |
| 2026-05-07 09:27 | 41.56789 | 13.58733 | 22071 ft | 368 kts | 308° |
| 2026-05-07 09:28 | 41.58539 | 13.56237 | 21564 ft | 366 kts | 308° |
| 2026-05-07 09:28 | 41.60269 | 13.53766 | 21062 ft | 363 kts | 308° |
| 2026-05-07 09:28 | 41.61988 | 13.51310 | 20564 ft | 361 kts | 308° |
| 2026-05-07 09:28 | 41.63698 | 13.48864 | 20060 ft | 359 kts | 308° |
| 2026-05-07 09:29 | 41.65373 | 13.46466 | 19572 ft | 356 kts | 308° |
| 2026-05-07 09:29 | 41.67063 | 13.44045 | 19090 ft | 355 kts | 308° |
| 2026-05-07 09:29 | 41.68744 | 13.41633 | 18578 ft | 354 kts | 308° |
| 2026-05-07 09:29 | 41.70410 | 13.39245 | 18334 ft | 345 kts | 308° |
| 2026-05-07 09:30 | 41.72027 | 13.36927 | 18101 ft | 336 kts | 308° |
| 2026-05-07 09:30 | 41.73596 | 13.34677 | 17898 ft | 325 kts | 308° |
| 2026-05-07 09:30 | 41.75134 | 13.32459 | 17473 ft | 323 kts | 308° |
| 2026-05-07 09:30 | 41.76649 | 13.30269 | 17069 ft | 320 kts | 308° |
| 2026-05-07 09:31 | 41.78157 | 13.28085 | 16666 ft | 317 kts | 308° |
| 2026-05-07 09:31 | 41.79651 | 13.25921 | 16257 ft | 316 kts | 308° |
| 2026-05-07 09:31 | 41.81140 | 13.23762 | 15856 ft | 314 kts | 308° |
| 2026-05-07 09:31 | 41.82602 | 13.21641 | 15458 ft | 313 kts | 308° |
| 2026-05-07 09:32 | 41.84077 | 13.19500 | 15053 ft | 312 kts | 308° |
| 2026-05-07 09:32 | 41.85543 | 13.17371 | 14651 ft | 310 kts | 309° |
| 2026-05-07 09:32 | 41.87005 | 13.15248 | 14264 ft | 309 kts | 309° |
| 2026-05-07 09:32 | 41.88459 | 13.13133 | 13855 ft | 308 kts | 309° |
| 2026-05-07 09:33 | 41.89912 | 13.11019 | 13414 ft | 307 kts | 309° |
| 2026-05-07 09:33 | 41.91358 | 13.08915 | 12978 ft | 305 kts | 309° |
| 2026-05-07 09:33 | 41.92795 | 13.06820 | 12570 ft | 302 kts | 309° |
| 2026-05-07 09:33 | 41.94214 | 13.04751 | 12175 ft | 300 kts | 310° |
| 2026-05-07 09:34 | 41.95602 | 13.02726 | 11784 ft | 297 kts | 310° |
| 2026-05-07 09:34 | 41.96995 | 13.00692 | 11393 ft | 295 kts | 310° |
| 2026-05-07 09:34 | 41.98377 | 12.98672 | 11000 ft | 292 kts | 310° |
| 2026-05-07 09:34 | 41.99743 | 12.96675 | 10620 ft | 288 kts | 310° |
| 2026-05-07 09:35 | 42.01074 | 12.94731 | 10519 ft | 275 kts | 310° |
| 2026-05-07 09:35 | 42.02345 | 12.92863 | 10377 ft | 265 kts | 307° |
| 2026-05-07 09:35 | 42.03207 | 12.90748 | 10148 ft | 255 kts | 285° |
| 2026-05-07 09:35 | 42.03645 | 12.88463 | 9871 ft | 251 kts | 282° |
| 2026-05-07 09:36 | 42.04033 | 12.86184 | 9547 ft | 249 kts | 281° |
| 2026-05-07 09:36 | 42.04417 | 12.83911 | 9212 ft | 248 kts | 282° |
| 2026-05-07 09:36 | 42.04804 | 12.81651 | 8898 ft | 247 kts | 282° |
| 2026-05-07 09:36 | 42.05194 | 12.79406 | 8593 ft | 246 kts | 282° |
| 2026-05-07 09:37 | 42.05582 | 12.77194 | 8379 ft | 243 kts | 282° |
| 2026-05-07 09:37 | 42.05963 | 12.75020 | 8236 ft | 235 kts | 282° |
| 2026-05-07 09:37 | 42.06333 | 12.72913 | 8120 ft | 227 kts | 282° |
| 2026-05-07 09:37 | 42.06691 | 12.70875 | 7936 ft | 222 kts | 282° |
| 2026-05-07 09:38 | 42.07044 | 12.68857 | 7677 ft | 220 kts | 282° |
| 2026-05-07 09:38 | 42.07394 | 12.66853 | 7425 ft | 219 kts | 282° |
| 2026-05-07 09:38 | 42.07742 | 12.64864 | 7176 ft | 218 kts | 282° |
| 2026-05-07 09:38 | 42.08088 | 12.62881 | 6924 ft | 219 kts | 282° |
| 2026-05-07 09:39 | 42.08436 | 12.60886 | 6684 ft | 217 kts | 282° |
| 2026-05-07 09:39 | 42.08663 | 12.59585 | 6526 ft | 214 kts | 282° |
| 2026-05-07 09:39 | 42.09104 | 12.57048 | 6178 ft | 206 kts | 282° |
| 2026-05-07 09:39 | 42.09428 | 12.55185 | 5916 ft | 201 kts | 281° |
| 2026-05-07 09:40 | 42.09490 | 12.53937 | 5699 ft | 197 kts | 259° |
| 2026-05-07 09:40 | 42.08901 | 12.52371 | 5493 ft | 191 kts | 225° |
| 2026-05-07 09:40 | 42.07783 | 12.51420 | 5303 ft | 192 kts | 203° |
| 2026-05-07 09:40 | 42.06535 | 12.50783 | 5068 ft | 191 kts | 200° |
| 2026-05-07 09:41 | 42.04880 | 12.49984 | 4767 ft | 190 kts | 200° |
| 2026-05-07 09:41 | 42.04041 | 12.49577 | 4611 ft | 188 kts | 200° |
| 2026-05-07 09:41 | 42.02833 | 12.48988 | 4376 ft | 182 kts | 200° |
| 2026-05-07 09:41 | 42.01673 | 12.48420 | 4248 ft | 176 kts | 200° |
| 2026-05-07 09:42 | 42.00512 | 12.47850 | 4051 ft | 181 kts | 200° |
| 2026-05-07 09:42 | 41.99346 | 12.47277 | 3836 ft | 176 kts | 200° |
| 2026-05-07 09:42 | 41.98176 | 12.46977 | 3590 ft | 171 kts | 166° |
| 2026-05-07 09:42 | 41.97137 | 12.47675 | 3520 ft | 172 kts | 152° |
| 2026-05-07 09:43 | 41.96045 | 12.48423 | 3262 ft | 175 kts | 153° |
| 2026-05-07 09:43 | 41.94973 | 12.49141 | 3061 ft | 171 kts | 154° |
| 2026-05-07 09:43 | 41.93909 | 12.49848 | 3021 ft | 170 kts | 153° |
| 2026-05-07 09:43 | 41.92859 | 12.50563 | 3005 ft | 169 kts | 153° |
| 2026-05-07 09:44 | 41.91790 | 12.51288 | 2784 ft | 175 kts | 153° |
| 2026-05-07 09:44 | 41.90723 | 12.52020 | 2576 ft | 170 kts | 153° |
| 2026-05-07 09:44 | 41.89709 | 12.52720 | 2355 ft | 155 kts | 153° |
| 2026-05-07 09:44 | 41.88797 | 12.53351 | 2133 ft | 142 kts | 152° |
| 2026-05-07 09:45 | 41.87926 | 12.53954 | 1968 ft | 142 kts | 153° |
| 2026-05-07 09:45 | 41.87036 | 12.54570 | 1779 ft | 145 kts | 152° |
| 2026-05-07 09:45 | 41.86138 | 12.55191 | 1577 ft | 145 kts | 153° |
| 2026-05-07 09:45 | 41.85262 | 12.55798 | 1376 ft | 143 kts | 153° |
| 2026-05-07 09:46 | 41.84377 | 12.56410 | 1194 ft | 143 kts | 152° |
| 2026-05-07 09:46 | 41.83492 | 12.57023 | 1007 ft | 143 kts | 152° |
| 2026-05-07 09:46 | 41.82607 | 12.57635 | 818 ft | 143 kts | 152° |
| 2026-05-07 09:46 | 41.81732 | 12.58241 | 631 ft | 140 kts | 151° |
| 2026-05-07 09:47 | 41.80858 | 12.58847 | 448 ft | 141 kts | 150° |
| 2026-05-07 09:47 | 41.80077 | 12.59387 | 414 ft | 99 kts | 153° |
| 2026-05-07 09:47 | 41.79652 | 12.59679 | 413 ft | 38 kts | 152° |
| 2026-05-07 09:47 | 41.79444 | 12.59825 | 411 ft | 31 kts | 153° |
| 2026-05-07 09:48 | 41.79290 | 12.59930 | 409 ft | 18 kts | 154° |
| 2026-05-07 09:48 | 41.79180 | 12.60006 | 414 ft | 18 kts | 153° |
| 2026-05-07 09:48 | 41.79080 | 12.60064 | 412 ft | 13 kts | 182° |
| 2026-05-07 09:48 | 41.79031 | 12.59977 | 405 ft | 16 kts | 253° |
| 2026-05-07 09:49 | 41.79008 | 12.59864 | 405 ft | 12 kts | 248° |
| 2026-05-07 09:49 | 41.78989 | 12.59762 | 405 ft | 11 kts | 290° |
| 2026-05-07 09:49 | 41.79046 | 12.59720 | 405 ft | 1 kts | 336° |
| 2026-05-07 09:50 | 41.79050 | 12.59718 | 405 ft | 3 kts | 336° |
| 2026-05-07 09:50 | 41.79082 | 12.59701 | 405 ft | 7 kts | 339° |
| 2026-05-07 09:50 | 41.79141 | 12.59672 | 405 ft | 10 kts | 340° |
| 2026-05-07 09:51 | 41.79199 | 12.59635 | 403 ft | 9 kts | 332° |
| 2026-05-07 09:51 | 41.79251 | 12.59586 | 405 ft | 9 kts | 322° |
| 2026-05-07 09:51 | 41.79294 | 12.59559 | 405 ft | 5 kts | 38° |
| 2026-05-07 09:51 | 41.79317 | 12.59597 | 405 ft | 5 kts | 51° |
| 2026-05-07 09:52 | 41.79322 | 12.59606 | 405 ft | 0 kts | 52° |